sensor_id;sensor_type;location;lat;lon;timestamp;P1;durP1;ratioP1;P2;durP2;ratioP2
11135;SDS011;5622;50.840;4.948;2024-03-08T07:42:56;31.23;;;18.97;;
11135;SDS011;5622;50.840;4.948;2024-03-08T07:45:26;28.77;;;17.60;;
11135;SDS011;5622;50.840;4.948;2024-03-08T07:48:10;31.87;;;18.67;;
11135;SDS011;5622;50.840;4.948;2024-03-08T07:50:52;30.47;;;18.03;;
11135;SDS011;5622;50.840;4.948;2024-03-08T07:53:24;30.60;;;19.10;;
11135;SDS011;5622;50.840;4.948;2024-03-08T07:56:09;29.73;;;17.90;;
11135;SDS011;5622;50.840;4.948;2024-03-08T07:58:56;34.73;;;18.80;;
11135;SDS011;5622;50.840;4.948;2024-03-08T08:01:37;29.27;;;18.63;;
11135;SDS011;5622;50.840;4.948;2024-03-08T08:04:07;28.27;;;16.93;;
11135;SDS011;5622;50.840;4.948;2024-03-08T08:06:48;31.70;;;18.57;;
11135;SDS011;5622;50.840;4.948;2024-03-08T08:09:29;28.77;;;18.27;;
11135;SDS011;5622;50.840;4.948;2024-03-08T08:12:14;29.13;;;18.20;;
11135;SDS011;5622;50.840;4.948;2024-03-08T08:15:10;28.60;;;17.87;;
11135;SDS011;5622;50.840;4.948;2024-03-08T08:17:52;26.70;;;16.47;;
11135;SDS011;5622;50.840;4.948;2024-03-08T08:20:35;25.63;;;15.83;;
11135;SDS011;5622;50.840;4.948;2024-03-08T08:23:16;26.67;;;17.13;;
11135;SDS011;5622;50.840;4.948;2024-03-08T08:25:58;27.90;;;16.20;;
11135;SDS011;5622;50.840;4.948;2024-03-08T08:28:46;26.27;;;16.37;;
11135;SDS011;5622;50.840;4.948;2024-03-08T08:53:36;24.57;;;15.77;;
11135;SDS011;5622;50.840;4.948;2024-03-08T08:56:17;28.33;;;16.03;;
11135;SDS011;5622;50.840;4.948;2024-03-08T08:59:00;24.23;;;15.67;;
11135;SDS011;5622;50.840;4.948;2024-03-08T09:01:42;23.33;;;15.33;;
11135;SDS011;5622;50.840;4.948;2024-03-08T09:04:23;26.63;;;16.47;;
11135;SDS011;5622;50.840;4.948;2024-03-08T09:16:28;24.67;;;15.27;;
11135;SDS011;5622;50.840;4.948;2024-03-08T09:19:12;25.47;;;15.17;;
11135;SDS011;5622;50.840;4.948;2024-03-08T09:21:50;22.77;;;15.30;;
11135;SDS011;5622;50.840;4.948;2024-03-08T09:24:19;25.43;;;15.70;;
11135;SDS011;5622;50.840;4.948;2024-03-08T09:27:01;22.40;;;15.10;;
11135;SDS011;5622;50.840;4.948;2024-03-08T09:36:08;22.70;;;15.00;;
11135;SDS011;5622;50.840;4.948;2024-03-08T09:38:51;20.10;;;14.07;;
11135;SDS011;5622;50.840;4.948;2024-03-08T09:41:33;20.87;;;13.70;;
11135;SDS011;5622;50.840;4.948;2024-03-08T09:44:17;21.50;;;14.47;;
11135;SDS011;5622;50.840;4.948;2024-03-08T09:46:58;20.10;;;14.63;;
11135;SDS011;5622;50.840;4.948;2024-03-08T09:49:35;23.53;;;15.40;;
11135;SDS011;5622;50.840;4.948;2024-03-08T10:29:42;21.60;;;14.03;;
11135;SDS011;5622;50.840;4.948;2024-03-08T10:32:35;24.53;;;14.70;;
11135;SDS011;5622;50.840;4.948;2024-03-08T10:35:34;25.13;;;15.20;;
11135;SDS011;5622;50.840;4.948;2024-03-08T10:38:16;23.97;;;14.60;;
11135;SDS011;5622;50.840;4.948;2024-03-08T10:41:14;20.13;;;14.90;;
11135;SDS011;5622;50.840;4.948;2024-03-08T13:54:55;15.23;;;10.67;;
11135;SDS011;5622;50.840;4.948;2024-03-08T13:57:22;17.77;;;10.73;;
11135;SDS011;5622;50.840;4.948;2024-03-08T13:59:49;14.37;;;10.67;;
11135;SDS011;5622;50.840;4.948;2024-03-08T14:02:17;17.67;;;11.50;;
11135;SDS011;5622;50.840;4.948;2024-03-08T14:04:44;17.40;;;12.40;;
11135;SDS011;5622;50.840;4.948;2024-03-08T14:07:12;15.77;;;11.30;;
11135;SDS011;5622;50.840;4.948;2024-03-08T14:09:39;18.13;;;11.80;;
11135;SDS011;5622;50.840;4.948;2024-03-08T14:12:12;16.93;;;11.90;;
11135;SDS011;5622;50.840;4.948;2024-03-08T14:14:40;16.43;;;11.27;;
11135;SDS011;5622;50.840;4.948;2024-03-08T14:17:09;15.77;;;11.37;;
11135;SDS011;5622;50.840;4.948;2024-03-08T14:19:42;16.60;;;11.37;;
11135;SDS011;5622;50.840;4.948;2024-03-08T14:22:09;16.20;;;11.47;;
11135;SDS011;5622;50.840;4.948;2024-03-08T14:24:41;16.27;;;11.17;;
11135;SDS011;5622;50.840;4.948;2024-03-08T14:27:09;18.10;;;11.13;;
11135;SDS011;5622;50.840;4.948;2024-03-08T14:29:40;16.23;;;11.80;;
11135;SDS011;5622;50.840;4.948;2024-03-08T14:32:08;18.27;;;12.40;;
11135;SDS011;5622;50.840;4.948;2024-03-08T14:34:38;17.07;;;12.07;;
11135;SDS011;5622;50.840;4.948;2024-03-08T14:37:05;18.47;;;11.90;;
11135;SDS011;5622;50.840;4.948;2024-03-08T14:39:36;16.43;;;11.47;;
11135;SDS011;5622;50.840;4.948;2024-03-08T14:42:04;17.27;;;11.93;;
11135;SDS011;5622;50.840;4.948;2024-03-08T14:44:35;17.30;;;11.30;;
11135;SDS011;5622;50.840;4.948;2024-03-08T14:47:04;21.97;;;12.17;;
11135;SDS011;5622;50.840;4.948;2024-03-08T14:49:32;19.83;;;12.50;;
11135;SDS011;5622;50.840;4.948;2024-03-08T14:52:01;17.93;;;11.73;;
11135;SDS011;5622;50.840;4.948;2024-03-08T14:54:39;16.23;;;11.40;;
11135;SDS011;5622;50.840;4.948;2024-03-08T14:57:08;20.10;;;12.43;;
11135;SDS011;5622;50.840;4.948;2024-03-08T14:59:37;17.50;;;12.40;;
11135;SDS011;5622;50.840;4.948;2024-03-08T15:02:05;17.17;;;11.73;;
11135;SDS011;5622;50.840;4.948;2024-03-08T15:04:32;16.30;;;11.47;;
11135;SDS011;5622;50.840;4.948;2024-03-08T15:07:00;18.03;;;11.53;;
11135;SDS011;5622;50.840;4.948;2024-03-08T15:09:30;16.80;;;11.57;;
11135;SDS011;5622;50.840;4.948;2024-03-08T15:12:05;17.97;;;12.17;;
11135;SDS011;5622;50.840;4.948;2024-03-08T15:14:33;16.73;;;11.50;;
11135;SDS011;5622;50.840;4.948;2024-03-08T15:17:01;19.53;;;11.67;;
11135;SDS011;5622;50.840;4.948;2024-03-08T15:19:35;19.20;;;11.57;;
11135;SDS011;5622;50.840;4.948;2024-03-08T15:22:03;21.80;;;12.13;;
11135;SDS011;5622;50.840;4.948;2024-03-08T15:24:30;16.90;;;11.83;;
11135;SDS011;5622;50.840;4.948;2024-03-08T15:26:58;14.97;;;10.77;;
11135;SDS011;5622;50.840;4.948;2024-03-08T15:29:27;17.17;;;11.97;;
11135;SDS011;5622;50.840;4.948;2024-03-08T15:31:54;16.70;;;11.03;;
11135;SDS011;5622;50.840;4.948;2024-03-08T15:34:23;19.13;;;11.60;;
11135;SDS011;5622;50.840;4.948;2024-03-08T15:36:51;18.97;;;12.17;;
11135;SDS011;5622;50.840;4.948;2024-03-08T15:39:19;15.67;;;10.97;;
11135;SDS011;5622;50.840;4.948;2024-03-08T15:41:48;18.43;;;11.73;;
11135;SDS011;5622;50.840;4.948;2024-03-08T15:44:15;17.77;;;11.67;;
11135;SDS011;5622;50.840;4.948;2024-03-08T15:46:42;19.20;;;11.93;;
11135;SDS011;5622;50.840;4.948;2024-03-08T15:49:10;14.43;;;10.83;;
11135;SDS011;5622;50.840;4.948;2024-03-08T15:51:39;17.67;;;10.87;;
11135;SDS011;5622;50.840;4.948;2024-03-08T15:54:07;15.63;;;10.87;;
11135;SDS011;5622;50.840;4.948;2024-03-08T15:56:35;15.83;;;11.40;;
11135;SDS011;5622;50.840;4.948;2024-03-08T15:59:03;16.43;;;11.00;;
11135;SDS011;5622;50.840;4.948;2024-03-08T16:01:32;16.13;;;11.63;;
11135;SDS011;5622;50.840;4.948;2024-03-08T16:04:00;15.53;;;10.80;;
11135;SDS011;5622;50.840;4.948;2024-03-08T16:06:27;20.00;;;11.07;;
11135;SDS011;5622;50.840;4.948;2024-03-08T16:08:56;17.90;;;11.27;;
11135;SDS011;5622;50.840;4.948;2024-03-08T16:11:24;15.57;;;10.40;;
11135;SDS011;5622;50.840;4.948;2024-03-08T16:13:52;14.63;;;10.33;;
11135;SDS011;5622;50.840;4.948;2024-03-08T16:16:19;15.57;;;10.87;;
11135;SDS011;5622;50.840;4.948;2024-03-08T16:18:48;17.60;;;10.90;;
11135;SDS011;5622;50.840;4.948;2024-03-08T16:21:15;16.93;;;11.43;;
11135;SDS011;5622;50.840;4.948;2024-03-08T16:23:42;16.33;;;10.93;;
11135;SDS011;5622;50.840;4.948;2024-03-08T16:26:13;15.83;;;10.43;;
11135;SDS011;5622;50.840;4.948;2024-03-08T16:28:40;15.53;;;11.03;;
11135;SDS011;5622;50.840;4.948;2024-03-08T16:31:09;15.53;;;10.60;;
11135;SDS011;5622;50.840;4.948;2024-03-08T16:33:39;15.10;;;10.77;;
11135;SDS011;5622;50.840;4.948;2024-03-08T16:36:06;15.57;;;10.30;;
11135;SDS011;5622;50.840;4.948;2024-03-08T16:38:36;15.43;;;10.17;;
11135;SDS011;5622;50.840;4.948;2024-03-08T16:41:03;16.73;;;10.93;;
11135;SDS011;5622;50.840;4.948;2024-03-08T16:43:32;13.30;;;9.00;;
11135;SDS011;5622;50.840;4.948;2024-03-08T16:46:01;14.90;;;9.77;;
11135;SDS011;5622;50.840;4.948;2024-03-08T16:48:28;19.33;;;10.33;;
11135;SDS011;5622;50.840;4.948;2024-03-08T16:50:56;13.37;;;9.63;;
11135;SDS011;5622;50.840;4.948;2024-03-08T16:53:23;14.53;;;9.60;;
11135;SDS011;5622;50.840;4.948;2024-03-08T16:55:50;13.77;;;9.30;;
11135;SDS011;5622;50.840;4.948;2024-03-08T16:58:18;14.47;;;10.27;;
11135;SDS011;5622;50.840;4.948;2024-03-08T17:01:05;14.10;;;10.30;;
11135;SDS011;5622;50.840;4.948;2024-03-08T17:03:33;16.63;;;10.37;;
11135;SDS011;5622;50.840;4.948;2024-03-08T17:06:01;16.00;;;10.43;;
11135;SDS011;5622;50.840;4.948;2024-03-08T17:08:30;14.30;;;9.77;;
11135;SDS011;5622;50.840;4.948;2024-03-08T17:11:00;15.60;;;10.13;;
11135;SDS011;5622;50.840;4.948;2024-03-08T17:13:27;18.67;;;10.17;;
11135;SDS011;5622;50.840;4.948;2024-03-08T17:15:58;15.73;;;11.10;;
11135;SDS011;5622;50.840;4.948;2024-03-08T17:18:25;16.07;;;10.60;;
11135;SDS011;5622;50.840;4.948;2024-03-08T17:20:53;15.53;;;10.83;;
11135;SDS011;5622;50.840;4.948;2024-03-08T17:23:21;18.23;;;11.53;;
11135;SDS011;5622;50.840;4.948;2024-03-08T17:25:49;16.37;;;10.17;;
11135;SDS011;5622;50.840;4.948;2024-03-08T17:28:16;16.57;;;11.17;;
11135;SDS011;5622;50.840;4.948;2024-03-08T17:30:43;15.30;;;10.73;;
11135;SDS011;5622;50.840;4.948;2024-03-08T17:33:13;16.73;;;11.17;;
11135;SDS011;5622;50.840;4.948;2024-03-08T17:35:46;17.60;;;10.90;;
11135;SDS011;5622;50.840;4.948;2024-03-08T17:38:13;15.77;;;11.03;;
11135;SDS011;5622;50.840;4.948;2024-03-08T17:40:46;16.50;;;11.23;;
11135;SDS011;5622;50.840;4.948;2024-03-08T17:43:13;13.27;;;9.73;;
11135;SDS011;5622;50.840;4.948;2024-03-08T17:45:42;17.37;;;10.20;;
11135;SDS011;5622;50.840;4.948;2024-03-08T17:48:13;15.37;;;10.87;;
11135;SDS011;5622;50.840;4.948;2024-03-08T17:50:42;18.07;;;11.80;;
11135;SDS011;5622;50.840;4.948;2024-03-08T17:53:09;17.50;;;11.40;;
11135;SDS011;5622;50.840;4.948;2024-03-08T17:55:38;16.67;;;10.57;;
11135;SDS011;5622;50.840;4.948;2024-03-08T17:58:07;16.30;;;10.70;;
11135;SDS011;5622;50.840;4.948;2024-03-08T18:00:36;17.53;;;10.97;;
11135;SDS011;5622;50.840;4.948;2024-03-08T18:03:06;15.87;;;11.07;;
11135;SDS011;5622;50.840;4.948;2024-03-08T18:05:37;18.37;;;10.97;;
11135;SDS011;5622;50.840;4.948;2024-03-08T18:08:06;15.33;;;10.90;;
11135;SDS011;5622;50.840;4.948;2024-03-08T18:10:34;16.73;;;10.97;;
11135;SDS011;5622;50.840;4.948;2024-03-08T18:13:02;21.33;;;11.80;;
11135;SDS011;5622;50.840;4.948;2024-03-08T18:15:35;16.87;;;12.00;;
11135;SDS011;5622;50.840;4.948;2024-03-08T18:20:51;16.00;;;10.27;;
11135;SDS011;5622;50.840;4.948;2024-03-08T18:23:19;18.43;;;11.67;;
11135;SDS011;5622;50.840;4.948;2024-03-08T18:25:47;17.50;;;11.27;;
11135;SDS011;5622;50.840;4.948;2024-03-08T18:28:15;16.80;;;11.27;;
11135;SDS011;5622;50.840;4.948;2024-03-08T18:30:43;15.60;;;10.40;;
11135;SDS011;5622;50.840;4.948;2024-03-08T18:33:10;15.60;;;10.50;;
11135;SDS011;5622;50.840;4.948;2024-03-08T18:35:39;17.27;;;11.63;;
11135;SDS011;5622;50.840;4.948;2024-03-08T18:38:07;17.53;;;11.17;;
11135;SDS011;5622;50.840;4.948;2024-03-08T18:40:35;17.90;;;11.03;;
11135;SDS011;5622;50.840;4.948;2024-03-08T18:43:05;23.50;;;11.80;;
11135;SDS011;5622;50.840;4.948;2024-03-08T18:45:32;17.70;;;11.67;;
11135;SDS011;5622;50.840;4.948;2024-03-08T18:48:00;17.30;;;11.13;;
11135;SDS011;5622;50.840;4.948;2024-03-08T18:50:30;17.17;;;11.20;;
11135;SDS011;5622;50.840;4.948;2024-03-08T18:52:58;18.20;;;11.10;;
11135;SDS011;5622;50.840;4.948;2024-03-08T18:55:27;16.33;;;11.00;;
11135;SDS011;5622;50.840;4.948;2024-03-08T18:57:56;17.00;;;10.60;;
11135;SDS011;5622;50.840;4.948;2024-03-08T19:00:26;17.97;;;11.87;;
11135;SDS011;5622;50.840;4.948;2024-03-08T19:02:55;17.73;;;11.60;;
11135;SDS011;5622;50.840;4.948;2024-03-08T19:05:25;14.47;;;10.30;;
11135;SDS011;5622;50.840;4.948;2024-03-08T19:07:53;17.57;;;11.57;;
11135;SDS011;5622;50.840;4.948;2024-03-08T19:10:22;17.37;;;11.10;;
11135;SDS011;5622;50.840;4.948;2024-03-08T19:12:52;17.27;;;11.60;;
11135;SDS011;5622;50.840;4.948;2024-03-08T19:15:21;15.37;;;11.07;;
11135;SDS011;5622;50.840;4.948;2024-03-08T19:17:50;18.83;;;10.90;;
11135;SDS011;5622;50.840;4.948;2024-03-08T19:20:18;16.13;;;11.87;;
11135;SDS011;5622;50.840;4.948;2024-03-08T19:22:47;22.20;;;12.73;;
11135;SDS011;5622;50.840;4.948;2024-03-08T19:25:16;16.17;;;11.17;;
11135;SDS011;5622;50.840;4.948;2024-03-08T19:27:44;16.77;;;11.33;;
11135;SDS011;5622;50.840;4.948;2024-03-08T19:30:13;19.60;;;12.80;;
11135;SDS011;5622;50.840;4.948;2024-03-08T19:32:43;19.90;;;11.80;;
11135;SDS011;5622;50.840;4.948;2024-03-08T19:35:10;20.17;;;12.20;;
11135;SDS011;5622;50.840;4.948;2024-03-08T19:37:43;20.43;;;12.43;;
11135;SDS011;5622;50.840;4.948;2024-03-08T19:40:12;19.63;;;12.20;;
11135;SDS011;5622;50.840;4.948;2024-03-08T19:42:44;17.93;;;11.87;;
11135;SDS011;5622;50.840;4.948;2024-03-08T19:45:14;16.47;;;11.47;;
11135;SDS011;5622;50.840;4.948;2024-03-08T19:47:42;18.13;;;12.27;;
11135;SDS011;5622;50.840;4.948;2024-03-08T19:50:10;17.93;;;12.47;;
11135;SDS011;5622;50.840;4.948;2024-03-08T19:52:40;17.33;;;11.13;;
11135;SDS011;5622;50.840;4.948;2024-03-08T19:55:09;17.70;;;11.37;;
